Wapak, Ohio
Current Conditions -  °F | °C
As of 2:14 AM on Saturday 25 Oct 2014 (Local Time) from KAXV Reporting Station
Clear Clear  
Wind Chill: 50°   Ceiling: Unl
Heat Index: 50°   Visibility: 10mi
Dew Point: 46°   Wind: 5mph
Humidity: 87%   Direction: 210°SSW
Pressure: 29.99"   Gusts: NA
Location:  40.5656°N, 84.1367°W
Report Text: KAXV 250614Z AUTO 21004KT 10SM CLR 10/08 A2999 RMK AO2
Loading
Personal Weather Stations






























Interactive Weather Map
Tropical Storm Tracking
New forecast layout! Learn more

10-Day Weather Forecast

Advertisements
Track Severe Weather on mobile